Terminal Aerodrome Forecast
Issued by NWS

Home | Current Version | Previous Version | Text Only | Print | Product List | Glossary On
Versions: 1 2 3 4 5 6 7 8 9 10 11 12 13 14
000
FTUS45 KSLC 201120
TAFOGD
TAF
KOGD 201120Z 2012/2112 17009KT P6SM SCT070 BKN120
     FM201800 VRB06KT P6SM VCSH SCT040 BKN060
     FM202100 28006KT P6SM -SHRA SCT020 BKN040
     FM210400 17006KT P6SM VCSH SCT020 BKN050=

USA.gov is the U.S. government's official web portal to all federal, state and local government web resources and services.